Schenley, Pennsylvania
Current Conditions -  °F | °C
As of 1:15 PM on Thursday 23 Oct 2014 (Local Time) from KBTP Reporting Station
Clear Clear  
Wind Chill: 59°   Ceiling: Unl
Heat Index: 59°   Visibility: 10mi
Dew Point: 41°   Wind: 13mph
Humidity: 51%   Direction: 310°NW
Pressure: 30.11"   Gusts: 17mph
Location:  40.68°N, 79.66°W
Report Text: KBTP 231715Z AUTO 31011G15KT 10SM CLR 15/05 A3011 RMK AO1
Loading
Personal Weather Stations






























Interactive Weather Map
Tropical Storm Tracking
New forecast layout! Learn more

10-Day Weather Forecast

Advertisements
Track Severe Weather on mobile